createdAt,value
2023-04-16T00:00:25.860Z,11.10
2023-04-16T00:01:25.862Z,12.40
2023-04-16T00:02:25.996Z,12.10
2023-04-16T00:03:25.945Z,12.40
2023-04-16T00:04:25.872Z,12.20
2023-04-16T00:05:25.839Z,11.40
2023-04-16T00:06:25.809Z,11.80
2023-04-16T00:07:25.805Z,10.90
2023-04-16T00:08:25.804Z,12.30
2023-04-16T00:09:25.783Z,12.00
2023-04-16T00:10:25.752Z,12.90
2023-04-16T00:11:25.798Z,12.10
2023-04-16T00:12:25.738Z,11.90
2023-04-16T00:13:25.744Z,12.40
2023-04-16T00:14:25.704Z,11.70
2023-04-16T00:15:25.737Z,11.90
2023-04-16T00:16:25.746Z,12.20
2023-04-16T00:17:25.717Z,13.00
2023-04-16T00:18:25.686Z,13.60
2023-04-16T00:19:25.681Z,11.90
2023-04-16T00:20:25.651Z,13.80
2023-04-16T00:21:25.829Z,12.10
2023-04-16T00:22:25.605Z,11.60
2023-04-16T00:23:25.631Z,12.90
2023-04-16T00:24:25.633Z,11.80
2023-04-16T00:25:25.627Z,11.50
2023-04-16T00:26:25.588Z,11.80
2023-04-16T00:27:25.643Z,11.50
2023-04-16T00:28:25.547Z,12.10
2023-04-16T00:29:25.562Z,12.90
2023-04-16T00:30:25.601Z,12.80
2023-04-16T00:31:25.618Z,11.50
2023-04-16T00:32:25.588Z,12.50
2023-04-16T00:33:25.529Z,11.30
2023-04-16T00:34:25.476Z,12.40
2023-04-16T00:35:25.477Z,10.70
2023-04-16T00:36:25.480Z,13.60
2023-04-16T00:37:25.476Z,13.00
2023-04-16T00:38:25.442Z,13.70
2023-04-16T00:39:25.444Z,12.10
2023-04-16T00:40:25.433Z,12.20
2023-04-16T00:41:25.404Z,11.90
2023-04-16T00:42:25.380Z,12.80
2023-04-16T00:43:25.418Z,13.40
2023-04-16T00:44:25.394Z,12.20
2023-04-16T00:45:25.392Z,12.80
2023-04-16T00:46:25.394Z,11.80
2023-04-16T00:47:25.411Z,11.50
2023-04-16T00:48:25.333Z,11.40
2023-04-16T00:49:25.366Z,12.90
2023-04-16T00:50:25.293Z,11.70
2023-04-16T00:51:25.300Z,11.40
2023-04-16T00:52:25.274Z,10.80
2023-04-16T00:53:25.286Z,11.90
2023-04-16T00:54:25.268Z,10.10
2023-04-16T00:55:25.269Z,10.70
2023-04-16T00:56:25.218Z,11.60
2023-04-16T00:57:25.239Z,10.10
2023-04-16T00:58:25.946Z,13.50
2023-04-16T00:59:25.216Z,9.90
2023-04-16T01:00:25.182Z,11.80
2023-04-16T01:01:25.191Z,12.10
2023-04-16T01:02:25.265Z,9.10
2023-04-16T01:03:25.302Z,11.00
2023-04-16T01:04:25.135Z,8.60
2023-04-16T01:05:25.164Z,10.20
2023-04-16T01:06:25.117Z,9.70
2023-04-16T01:07:25.116Z,9.80
2023-04-16T01:08:25.077Z,8.50
2023-04-16T01:09:25.123Z,10.60
2023-04-16T01:10:25.061Z,9.60
2023-04-16T01:11:25.057Z,8.00
2023-04-16T01:12:25.067Z,8.40
2023-04-16T01:13:25.041Z,9.10
2023-04-16T01:14:25.053Z,9.90
2023-04-16T01:15:25.015Z,8.50
2023-04-16T01:16:25.114Z,8.00
2023-04-16T01:17:25.013Z,8.20
2023-04-16T01:18:25.034Z,7.80
2023-04-16T01:19:25.830Z,8.00
2023-04-16T01:20:26.058Z,8.00
2023-04-16T01:21:24.952Z,7.30
2023-04-16T01:22:24.951Z,9.50
2023-04-16T01:23:24.962Z,8.10
2023-04-16T01:24:24.939Z,6.90
2023-04-16T01:25:24.919Z,7.70
2023-04-16T01:26:24.932Z,7.70
2023-04-16T01:27:24.891Z,6.10
2023-04-16T01:28:24.897Z,6.10
2023-04-16T01:29:24.861Z,7.40
2023-04-16T01:30:24.882Z,7.40
2023-04-16T01:31:24.882Z,8.00
2023-04-16T01:32:24.919Z,7.50
2023-04-16T01:33:24.829Z,6.90
2023-04-16T01:34:24.902Z,7.40
2023-04-16T01:35:24.778Z,7.10
2023-04-16T01:36:24.785Z,8.60
2023-04-16T01:37:24.771Z,7.50
2023-04-16T01:38:24.778Z,7.20
2023-04-16T01:39:24.743Z,6.30
2023-04-16T01:40:24.761Z,7.40
2023-04-16T01:41:24.726Z,7.60
2023-04-16T01:42:24.740Z,7.00
2023-04-16T01:43:24.702Z,7.90
2023-04-16T01:44:24.771Z,8.00
2023-04-16T01:45:24.697Z,7.70
2023-04-16T01:46:24.714Z,8.10
2023-04-16T01:47:24.763Z,7.30
2023-04-16T01:48:24.663Z,7.70
2023-04-16T01:49:24.621Z,9.80
2023-04-16T01:50:24.638Z,8.60
2023-04-16T01:51:25.047Z,8.20
2023-04-16T01:52:25.964Z,8.50
2023-04-16T01:53:24.653Z,7.20
2023-04-16T01:54:24.747Z,8.50
2023-04-16T01:55:24.573Z,9.60
2023-04-16T01:56:24.617Z,8.10
2023-04-16T01:57:24.555Z,8.50
2023-04-16T01:58:24.567Z,9.70
2023-04-16T01:59:24.525Z,9.40
2023-04-16T02:00:24.750Z,9.00
2023-04-16T02:01:24.602Z,9.20
2023-04-16T02:02:24.544Z,8.90
2023-04-16T02:03:24.603Z,8.60
2023-04-16T02:04:24.580Z,9.00
2023-04-16T02:05:24.493Z,8.40
2023-04-16T02:06:24.462Z,9.80
2023-04-16T02:07:24.487Z,10.20
2023-04-16T02:08:24.456Z,9.60
2023-04-16T02:09:24.525Z,10.80
2023-04-16T02:10:24.562Z,10.60
2023-04-16T02:11:24.404Z,10.90
2023-04-16T02:12:24.492Z,10.00
2023-04-16T02:13:24.397Z,11.10
2023-04-16T02:14:24.383Z,9.80
2023-04-16T02:15:24.404Z,10.10
2023-04-16T02:16:24.409Z,9.50
2023-04-16T02:17:24.462Z,9.60
2023-04-16T02:18:24.413Z,10.80
2023-04-16T02:19:24.326Z,11.80
2023-04-16T02:20:24.371Z,9.90
2023-04-16T02:21:24.276Z,10.90
2023-04-16T02:22:24.633Z,9.50
2023-04-16T02:23:24.259Z,9.30
2023-04-16T02:24:24.313Z,9.90
2023-04-16T02:25:24.225Z,9.70
2023-04-16T02:26:24.232Z,11.10
2023-04-16T02:27:24.196Z,11.90
2023-04-16T02:28:24.229Z,11.00
2023-04-16T02:29:24.172Z,11.30
2023-04-16T02:30:24.175Z,10.30
2023-04-16T02:31:24.201Z,9.70
2023-04-16T02:32:24.192Z,12.30
2023-04-16T02:33:24.126Z,10.20
2023-04-16T02:34:24.136Z,11.30
2023-04-16T02:35:24.125Z,11.30
2023-04-16T02:36:24.110Z,10.60
2023-04-16T02:37:24.083Z,14.50
2023-04-16T02:38:24.108Z,10.70
2023-04-16T02:39:24.101Z,10.40
2023-04-16T02:40:24.067Z,12.20
2023-04-16T02:41:24.047Z,12.20
2023-04-16T02:42:24.049Z,11.90
2023-04-16T02:43:24.021Z,10.20
2023-04-16T02:44:24.063Z,11.40
2023-04-16T02:45:24.007Z,10.90
2023-04-16T02:46:24.241Z,11.00
2023-04-16T02:47:24.041Z,11.80
2023-04-16T02:48:23.997Z,12.00
2023-04-16T02:49:23.955Z,10.70
2023-04-16T02:50:23.976Z,11.10
2023-04-16T02:51:23.981Z,11.20
2023-04-16T02:52:23.941Z,11.90
2023-04-16T02:53:23.908Z,12.00
2023-04-16T02:54:23.916Z,12.30
2023-04-16T02:55:23.901Z,12.50
2023-04-16T02:56:23.922Z,12.20
2023-04-16T02:57:23.858Z,13.60
2023-04-16T02:58:23.870Z,12.90
2023-04-16T02:59:23.877Z,12.40
2023-04-16T03:00:23.849Z,12.10
2023-04-16T03:01:23.847Z,12.90
2023-04-16T03:02:24.439Z,11.30
2023-04-16T03:03:23.858Z,12.00
2023-04-16T03:04:23.856Z,11.50
2023-04-16T03:05:23.797Z,13.40
2023-04-16T03:06:23.789Z,11.10
2023-04-16T03:07:23.753Z,12.00
2023-04-16T03:08:23.783Z,11.70
2023-04-16T03:09:23.731Z,11.90
2023-04-16T03:10:31.291Z,12.80
2023-04-16T03:11:23.699Z,12.80
2023-04-16T03:12:23.707Z,13.30
2023-04-16T03:13:23.673Z,11.20
2023-04-16T03:14:23.675Z,12.50
2023-04-16T03:15:23.653Z,11.50
2023-04-16T03:16:23.778Z,11.90
2023-04-16T03:17:23.643Z,11.60
2023-04-16T03:18:23.643Z,13.80
2023-04-16T03:19:23.605Z,12.40
2023-04-16T03:20:23.627Z,12.60
2023-04-16T03:21:23.617Z,11.70
2023-04-16T03:22:23.607Z,13.00
2023-04-16T03:23:23.564Z,12.20
2023-04-16T03:24:23.586Z,12.80
2023-04-16T03:25:23.542Z,12.50
2023-04-16T03:26:23.582Z,13.70
2023-04-16T03:27:23.514Z,13.30
2023-04-16T03:28:23.540Z,13.20
2023-04-16T03:29:23.493Z,11.60
2023-04-16T03:30:23.512Z,11.70
2023-04-16T03:31:23.545Z,13.70
2023-04-16T03:32:23.502Z,13.50
2023-04-16T03:33:23.471Z,13.90
2023-04-16T03:34:23.484Z,12.20
2023-04-16T03:35:23.417Z,12.80
2023-04-16T03:36:23.444Z,12.80
2023-04-16T03:37:23.409Z,13.30
2023-04-16T03:38:23.450Z,12.50
2023-04-16T03:39:23.369Z,12.30
2023-04-16T03:40:23.400Z,13.80
2023-04-16T03:41:23.357Z,12.80
2023-04-16T03:42:23.371Z,13.20
2023-04-16T03:43:23.342Z,13.10
2023-04-16T03:44:23.352Z,14.90
2023-04-16T03:45:23.334Z,13.90
2023-04-16T03:46:23.344Z,14.40
2023-04-16T03:47:23.303Z,11.90
2023-04-16T03:48:23.299Z,14.50
2023-04-16T03:49:23.295Z,13.20
2023-04-16T03:50:23.287Z,12.90
2023-04-16T03:51:23.247Z,14.00
2023-04-16T03:52:23.261Z,13.40
2023-04-16T03:53:23.222Z,13.50
2023-04-16T03:54:23.290Z,14.40
2023-04-16T03:55:23.197Z,14.00
2023-04-16T03:56:23.230Z,14.40
2023-04-16T03:57:23.170Z,14.60
2023-04-16T03:58:23.190Z,14.00
2023-04-16T03:59:23.175Z,14.20
2023-04-16T04:00:23.199Z,14.20
2023-04-16T04:01:23.139Z,13.80
2023-04-16T04:02:23.371Z,15.50
2023-04-16T04:03:23.309Z,14.80
2023-04-16T04:04:23.278Z,14.30
2023-04-16T04:05:23.102Z,15.90
2023-04-16T04:06:23.101Z,14.30
2023-04-16T04:07:23.092Z,14.90
2023-04-16T04:08:23.077Z,16.00
2023-04-16T04:09:23.033Z,16.10
2023-04-16T04:10:23.080Z,16.50
2023-04-16T04:11:23.027Z,16.20
2023-04-16T04:12:23.037Z,16.30
2023-04-16T04:13:23.007Z,15.30
2023-04-16T04:14:23.017Z,15.30
2023-04-16T04:15:23.003Z,16.20
2023-04-16T04:16:23.040Z,14.60
2023-04-16T04:17:22.975Z,14.40
2023-04-16T04:18:22.984Z,16.30
2023-04-16T04:19:22.934Z,14.30
2023-04-16T04:20:22.945Z,15.20
2023-04-16T04:21:22.939Z,14.60
2023-04-16T04:22:22.936Z,15.00
2023-04-16T04:23:22.902Z,14.80
2023-04-16T04:24:22.924Z,13.50
2023-04-16T04:25:22.869Z,14.80
2023-04-16T04:26:22.926Z,15.90
2023-04-16T04:27:22.853Z,14.30
2023-04-16T04:28:22.864Z,15.60
2023-04-16T04:29:22.832Z,14.30
2023-04-16T04:30:22.843Z,15.30
2023-04-16T04:31:22.832Z,15.90
2023-04-16T04:32:22.853Z,15.00
2023-04-16T04:33:22.788Z,15.60
2023-04-16T04:34:22.782Z,14.70
2023-04-16T04:35:22.761Z,14.80
2023-04-16T04:36:22.763Z,14.10
2023-04-16T04:37:22.748Z,14.20
2023-04-16T04:38:22.756Z,13.40
2023-04-16T04:39:22.700Z,13.90
2023-04-16T04:40:22.718Z,12.90
2023-04-16T04:41:22.686Z,12.40
2023-04-16T04:42:22.698Z,12.60
2023-04-16T04:43:22.700Z,13.70
2023-04-16T04:44:22.796Z,12.60
2023-04-16T04:45:22.642Z,15.10
2023-04-16T04:46:22.693Z,13.80
2023-04-16T04:47:22.712Z,13.10
2023-04-16T04:48:22.628Z,12.30
2023-04-16T04:49:22.580Z,12.50
2023-04-16T04:50:22.619Z,12.90
2023-04-16T04:51:22.561Z,12.60
2023-04-16T04:52:22.575Z,14.40
2023-04-16T04:53:22.553Z,12.10
2023-04-16T04:54:22.553Z,11.80
2023-04-16T04:55:22.513Z,12.50
2023-04-16T04:56:22.551Z,11.60
2023-04-16T04:57:22.493Z,12.10
2023-04-16T04:58:22.522Z,11.00
2023-04-16T04:59:22.478Z,11.20
2023-04-16T05:00:22.493Z,12.60
2023-04-16T05:01:22.514Z,13.80
2023-04-16T05:02:22.564Z,12.30
2023-04-16T05:03:22.605Z,11.70
2023-04-16T05:04:22.626Z,12.50
2023-04-16T05:05:22.505Z,14.60
2023-04-16T05:06:22.430Z,11.90
2023-04-16T05:07:22.393Z,12.50
2023-04-16T05:08:22.392Z,12.30
2023-04-16T05:09:22.371Z,11.40
2023-04-16T05:10:22.369Z,12.80
2023-04-16T05:11:22.341Z,12.20
2023-04-16T05:12:22.343Z,12.20
2023-04-16T05:13:22.351Z,12.50
2023-04-16T05:14:22.319Z,12.70
2023-04-16T05:15:22.289Z,11.20
2023-04-16T05:16:22.363Z,12.90
2023-04-16T05:17:22.299Z,13.00
2023-04-16T05:18:22.297Z,14.80
2023-04-16T05:19:22.248Z,12.80
2023-04-16T05:20:22.270Z,13.30
2023-04-16T05:21:22.226Z,14.40
2023-04-16T05:22:22.235Z,14.20
2023-04-16T05:23:22.431Z,14.70
2023-04-16T05:24:22.219Z,12.80
2023-04-16T05:25:22.198Z,15.10
2023-04-16T05:26:22.157Z,13.90
2023-04-16T05:27:22.185Z,14.50
2023-04-16T05:28:22.167Z,14.10
2023-04-16T05:29:22.181Z,13.70
2023-04-16T05:30:22.116Z,13.60
2023-04-16T05:31:22.234Z,13.60
2023-04-16T05:32:22.153Z,14.80
2023-04-16T05:33:22.125Z,13.80
2023-04-16T05:34:22.090Z,16.10
2023-04-16T05:35:22.094Z,14.20
2023-04-16T05:36:22.066Z,14.20
2023-04-16T05:37:22.084Z,15.80
2023-04-16T05:38:22.085Z,15.40
2023-04-16T05:39:22.047Z,15.30
2023-04-16T05:40:22.013Z,16.10
2023-04-16T05:41:22.019Z,15.80
2023-04-16T05:42:22.008Z,15.00
2023-04-16T05:43:21.999Z,15.30
2023-04-16T05:44:21.963Z,16.50
2023-04-16T05:45:21.982Z,16.50
2023-04-16T05:46:21.995Z,16.10
2023-04-16T05:47:21.999Z,17.80
2023-04-16T05:48:21.941Z,16.70
2023-04-16T05:49:21.935Z,16.30
2023-04-16T05:50:21.881Z,16.70
2023-04-16T05:51:21.917Z,16.10
2023-04-16T05:52:21.871Z,16.30
2023-04-16T05:53:21.880Z,17.30
2023-04-16T05:54:21.857Z,17.30
2023-04-16T05:55:21.876Z,18.20
2023-04-16T05:56:21.836Z,19.40
2023-04-16T05:57:21.833Z,19.20
2023-04-16T05:58:21.798Z,18.90
2023-04-16T05:59:22.628Z,18.10
2023-04-16T06:00:21.787Z,17.70
2023-04-16T06:01:21.838Z,17.20
2023-04-16T06:02:21.942Z,17.10
2023-04-16T06:03:21.844Z,18.20
2023-04-16T06:04:21.791Z,17.60
2023-04-16T06:05:22.613Z,17.50
2023-04-16T06:06:21.725Z,19.30
2023-04-16T06:07:21.751Z,18.70
2023-04-16T06:08:21.717Z,18.00
2023-04-16T06:09:21.722Z,17.70
2023-04-16T06:10:21.688Z,17.60
2023-04-16T06:11:21.714Z,18.30
2023-04-16T06:12:21.668Z,17.10
2023-04-16T06:13:21.686Z,18.00
2023-04-16T06:14:21.668Z,19.10
2023-04-16T06:15:21.678Z,17.20
2023-04-16T06:16:21.617Z,20.40
2023-04-16T06:17:21.616Z,19.70
2023-04-16T06:18:21.607Z,19.10
2023-04-16T06:19:21.617Z,20.70
2023-04-16T06:20:21.559Z,19.40
2023-04-16T06:21:21.558Z,19.80
2023-04-16T06:22:21.542Z,18.50
2023-04-16T06:23:21.546Z,19.80
2023-04-16T06:24:21.504Z,19.80
2023-04-16T06:25:21.515Z,19.60
2023-04-16T06:26:22.343Z,20.70
2023-04-16T06:27:21.539Z,20.90
2023-04-16T06:28:21.486Z,21.40
2023-04-16T06:29:25.837Z,20.40
2023-04-16T06:30:22.480Z,18.60
2023-04-16T06:31:21.502Z,20.30
2023-04-16T06:32:21.428Z,20.30
2023-04-16T06:33:21.441Z,20.20
2023-04-16T06:34:21.412Z,19.00
2023-04-16T06:35:21.418Z,19.90
2023-04-16T06:36:21.373Z,21.70
2023-04-16T06:37:21.392Z,19.90
2023-04-16T06:38:21.350Z,22.40
2023-04-16T06:39:21.370Z,19.90
2023-04-16T06:40:21.366Z,20.80
2023-04-16T06:41:21.341Z,21.10
2023-04-16T06:42:21.302Z,20.30
2023-04-16T06:43:21.312Z,20.80
2023-04-16T06:44:21.290Z,21.50
2023-04-16T06:45:21.309Z,19.50
2023-04-16T06:46:21.320Z,19.10
2023-04-16T06:47:21.321Z,19.70
2023-04-16T06:48:21.258Z,20.60
2023-04-16T06:49:21.250Z,19.30
2023-04-16T06:50:21.205Z,21.10
2023-04-16T06:51:21.295Z,20.50
2023-04-16T06:52:21.205Z,20.00
2023-04-16T06:53:21.205Z,20.00
2023-04-16T06:54:21.171Z,19.10
2023-04-16T06:55:21.188Z,20.00
2023-04-16T06:56:21.145Z,20.10
2023-04-16T06:57:21.164Z,19.70
2023-04-16T06:58:21.150Z,21.60
2023-04-16T06:59:21.150Z,21.30
2023-04-16T07:00:21.126Z,21.60
2023-04-16T07:01:21.173Z,21.20
2023-04-16T07:02:21.172Z,20.40
2023-04-16T07:03:21.238Z,20.80
2023-04-16T07:04:21.230Z,20.70
2023-04-16T07:05:21.112Z,20.40
2023-04-16T07:06:21.048Z,22.30
2023-04-16T07:07:21.062Z,20.10
2023-04-16T07:08:21.022Z,20.70
2023-04-16T07:09:21.063Z,21.50
2023-04-16T07:10:21.011Z,21.40
2023-04-16T07:11:21.018Z,22.50
2023-04-16T07:12:22.672Z,21.30
2023-04-16T07:13:20.979Z,23.40
2023-04-16T07:14:20.945Z,22.90
2023-04-16T07:15:21.054Z,23.40
2023-04-16T07:16:21.230Z,23.20
2023-04-16T07:17:20.942Z,23.50
2023-04-16T07:18:20.925Z,23.70
2023-04-16T07:19:20.924Z,22.90
2023-04-16T07:20:20.888Z,23.90
2023-04-16T07:21:20.910Z,24.90
2023-04-16T07:22:20.880Z,24.60
2023-04-16T07:23:20.872Z,25.70
2023-04-16T07:24:20.879Z,22.90
2023-04-16T07:25:20.864Z,21.80
2023-04-16T07:26:20.852Z,24.90
2023-04-16T07:27:20.857Z,24.90
2023-04-16T07:28:21.669Z,23.60
2023-04-16T07:29:27.397Z,24.70
2023-04-16T07:30:20.808Z,23.80
2023-04-16T07:31:20.846Z,28.00
2023-04-16T07:32:20.952Z,27.00
2023-04-16T07:33:20.781Z,25.00
2023-04-16T07:34:20.732Z,26.30
2023-04-16T07:35:20.754Z,24.40
2023-04-16T07:36:20.746Z,27.20
2023-04-16T07:37:20.754Z,25.70
2023-04-16T07:38:20.699Z,25.80
2023-04-16T07:39:20.727Z,27.70
2023-04-16T07:40:20.703Z,28.30
2023-04-16T07:41:20.766Z,28.90
2023-04-16T07:42:20.669Z,28.90
2023-04-16T07:43:20.672Z,25.00
2023-04-16T07:44:20.623Z,26.80
2023-04-16T07:45:20.664Z,29.60
2023-04-16T07:46:20.622Z,27.40
2023-04-16T07:47:20.641Z,29.60
2023-04-16T07:48:20.573Z,26.90
2023-04-16T07:49:28.156Z,26.90
2023-04-16T07:50:20.567Z,28.40
2023-04-16T07:51:20.573Z,26.90
2023-04-16T07:52:20.559Z,28.10
2023-04-16T07:53:20.549Z,27.20
2023-04-16T07:54:20.530Z,26.70
2023-04-16T07:55:20.522Z,28.00
2023-04-16T07:56:20.528Z,27.70
2023-04-16T07:57:20.525Z,23.00
2023-04-16T07:58:20.476Z,27.50
2023-04-16T07:59:23.556Z,26.50
2023-04-16T08:00:20.469Z,27.60
2023-04-16T08:01:20.485Z,27.20
2023-04-16T08:02:20.572Z,30.10
2023-04-16T08:03:20.583Z,29.80
2023-04-16T08:04:20.649Z,28.40
2023-04-16T08:05:20.456Z,30.00
2023-04-16T08:06:20.376Z,33.00
2023-04-16T08:07:20.396Z,28.00
2023-04-16T08:08:20.361Z,28.70
2023-04-16T08:09:20.387Z,30.90
2023-04-16T08:10:30.626Z,28.40
2023-04-16T08:11:20.344Z,32.30
2023-04-16T08:12:20.309Z,30.40
2023-04-16T08:13:20.323Z,30.20
2023-04-16T08:14:20.288Z,28.70
2023-04-16T08:15:29.131Z,29.90
2023-04-16T08:16:20.452Z,29.00
2023-04-16T08:17:20.297Z,26.90
2023-04-16T08:18:20.265Z,30.10
2023-04-16T08:19:20.258Z,30.80
2023-04-16T08:20:20.252Z,29.00
2023-04-16T08:21:29.008Z,29.70
2023-04-16T08:22:29.260Z,27.70
2023-04-16T08:23:20.243Z,27.20
2023-04-16T08:24:20.203Z,25.30
2023-04-16T08:25:20.206Z,31.50
2023-04-16T08:26:20.164Z,28.50
2023-04-16T08:27:20.495Z,29.00
2023-04-16T08:28:20.160Z,26.60
2023-04-16T08:29:20.162Z,29.00
2023-04-16T08:30:20.114Z,26.70
2023-04-16T08:31:20.176Z,26.00
2023-04-16T08:32:20.192Z,26.70
2023-04-16T08:33:20.143Z,29.20
2023-04-16T08:34:20.074Z,26.30
2023-04-16T08:35:27.661Z,28.20
2023-04-16T08:36:20.046Z,26.40
2023-04-16T08:37:20.061Z,27.90
2023-04-16T08:38:29.302Z,27.50
2023-04-16T08:39:20.041Z,26.10
2023-04-16T08:40:20.012Z,30.00
2023-04-16T08:41:20.039Z,27.50
2023-04-16T08:42:19.978Z,27.40
2023-04-16T08:43:27.602Z,28.20
2023-04-16T08:44:28.807Z,27.60
2023-04-16T08:45:19.970Z,28.70
2023-04-16T08:46:27.545Z,30.70
2023-04-16T08:47:19.960Z,26.20
2023-04-16T08:48:19.911Z,25.90
2023-04-16T08:49:19.925Z,24.70
2023-04-16T08:50:29.173Z,26.40
2023-04-16T08:51:19.917Z,25.10
2023-04-16T08:52:19.879Z,23.60
2023-04-16T08:53:19.896Z,24.80
2023-04-16T08:54:19.840Z,25.30
2023-04-16T08:55:19.855Z,25.40
2023-04-16T08:56:19.843Z,24.70
2023-04-16T08:57:19.855Z,24.00
2023-04-16T08:58:19.805Z,24.30
2023-04-16T08:59:19.814Z,22.90
2023-04-16T09:00:19.807Z,25.00
2023-04-16T09:01:19.910Z,25.00
2023-04-16T09:02:19.836Z,24.70
2023-04-16T09:03:20.136Z,22.70
2023-04-16T09:04:19.850Z,20.90
2023-04-16T09:05:19.765Z,24.30
2023-04-16T09:06:19.725Z,23.20
2023-04-16T09:07:19.753Z,23.20
2023-04-16T09:08:19.718Z,25.70
2023-04-16T09:09:19.724Z,25.30
2023-04-16T09:10:19.803Z,23.70
2023-04-16T09:11:19.727Z,24.70
2023-04-16T09:12:19.694Z,26.80
2023-04-16T09:13:19.684Z,25.90
2023-04-16T09:14:19.635Z,27.30
2023-04-16T09:15:19.662Z,26.40
2023-04-16T09:16:19.655Z,26.60
2023-04-16T09:17:19.671Z,23.90
2023-04-16T09:18:19.595Z,26.50
2023-04-16T09:19:19.630Z,27.60
2023-04-16T09:20:19.634Z,26.20
2023-04-16T09:21:20.608Z,25.60
2023-04-16T09:22:19.571Z,29.70
2023-04-16T09:23:19.544Z,25.10
2023-04-16T09:24:19.562Z,26.60
2023-04-16T09:25:19.517Z,30.30
2023-04-16T09:26:19.534Z,29.20
2023-04-16T09:27:19.491Z,26.50
2023-04-16T09:28:19.508Z,27.80
2023-04-16T09:29:19.466Z,28.50
2023-04-16T09:30:19.616Z,25.90
2023-04-16T09:31:19.597Z,28.20
2023-04-16T09:32:19.551Z,25.90
2023-04-16T09:33:19.476Z,27.50
2023-04-16T09:34:19.426Z,28.80
2023-04-16T09:35:19.400Z,28.90
2023-04-16T09:36:19.447Z,25.60
2023-04-16T09:37:19.367Z,27.50
2023-04-16T09:38:19.413Z,26.80
2023-04-16T09:39:19.358Z,25.40
2023-04-16T09:40:19.405Z,26.10
2023-04-16T09:41:19.337Z,25.30
2023-04-16T09:42:19.372Z,26.50
2023-04-16T09:43:19.340Z,27.20
2023-04-16T09:44:19.349Z,26.00
2023-04-16T09:45:19.292Z,25.10
2023-04-16T09:46:19.344Z,26.30
2023-04-16T09:47:19.297Z,26.10
2023-04-16T09:48:19.284Z,24.10
2023-04-16T09:49:19.237Z,26.40
2023-04-16T09:50:19.254Z,24.10
2023-04-16T09:51:19.760Z,25.90
2023-04-16T09:52:19.233Z,27.00
2023-04-16T09:53:19.191Z,25.80
2023-04-16T09:54:19.218Z,24.50
2023-04-16T09:55:19.207Z,25.90
2023-04-16T09:56:19.176Z,26.00
2023-04-16T09:57:19.151Z,26.20
2023-04-16T09:58:19.167Z,23.40
2023-04-16T09:59:19.161Z,25.60
2023-04-16T10:00:19.314Z,26.50
2023-04-16T10:01:19.134Z,23.60
2023-04-16T10:02:19.150Z,23.10
2023-04-16T10:03:19.192Z,23.90
2023-04-16T10:04:19.109Z,27.10
2023-04-16T10:05:19.077Z,22.60
2023-04-16T10:06:19.093Z,23.60
2023-04-16T10:07:19.042Z,26.30
2023-04-16T10:08:19.073Z,29.10
2023-04-16T10:09:19.018Z,26.40
2023-04-16T10:10:19.094Z,24.80
2023-04-16T10:11:19.846Z,24.80
2023-04-16T10:12:19.008Z,24.90
2023-04-16T10:13:18.970Z,26.30
2023-04-16T10:14:18.989Z,23.50
2023-04-16T10:15:19.295Z,24.50
2023-04-16T10:16:18.999Z,23.40
2023-04-16T10:17:18.926Z,24.60
2023-04-16T10:18:18.936Z,23.60
2023-04-16T10:19:18.899Z,26.90
2023-04-16T10:20:18.955Z,26.00
2023-04-16T10:21:18.882Z,23.00
2023-04-16T10:22:18.890Z,24.10
2023-04-16T10:23:18.882Z,23.90
2023-04-16T10:24:18.867Z,24.90
2023-04-16T10:25:18.909Z,25.60
2023-04-16T10:26:18.861Z,24.30
2023-04-16T10:27:18.827Z,24.00
2023-04-16T10:28:18.828Z,25.20
2023-04-16T10:29:18.790Z,23.90
2023-04-16T10:30:18.795Z,25.30
2023-04-16T10:31:18.789Z,23.50
2023-04-16T10:32:18.837Z,23.10
2023-04-16T10:33:18.757Z,24.60
2023-04-16T10:34:18.764Z,25.90
2023-04-16T10:35:18.722Z,21.10
2023-04-16T10:36:18.743Z,25.40
2023-04-16T10:37:18.707Z,23.60
2023-04-16T10:38:18.712Z,24.90
2023-04-16T10:39:18.676Z,26.20
2023-04-16T10:40:18.691Z,26.80
2023-04-16T10:41:18.657Z,26.80
2023-04-16T10:42:18.736Z,26.30
2023-04-16T10:43:18.642Z,25.10
2023-04-16T10:44:18.643Z,27.00
2023-04-16T10:45:18.604Z,27.40
2023-04-16T10:46:18.724Z,24.40
2023-04-16T10:47:18.613Z,25.80
2023-04-16T10:48:18.614Z,24.90
2023-04-16T10:49:18.572Z,26.60
2023-04-16T10:50:18.606Z,26.20
2023-04-16T10:51:18.535Z,27.40
2023-04-16T10:52:19.339Z,28.00
2023-04-16T10:53:18.833Z,26.20
2023-04-16T10:54:19.201Z,27.20
2023-04-16T10:55:18.481Z,30.40
2023-04-16T10:56:18.499Z,31.40
2023-04-16T10:57:18.506Z,29.80
2023-04-16T10:58:18.484Z,27.90
2023-04-16T10:59:18.450Z,28.70
2023-04-16T11:00:18.500Z,30.20
2023-04-16T11:01:18.446Z,31.00
2023-04-16T11:02:19.071Z,28.40
2023-04-16T11:03:18.527Z,29.50
2023-04-16T11:04:18.560Z,32.00
2023-04-16T11:05:18.393Z,30.60
2023-04-16T11:06:18.422Z,27.70
2023-04-16T11:07:18.366Z,30.20
2023-04-16T11:08:18.924Z,29.00
2023-04-16T11:09:18.331Z,27.40
2023-04-16T11:10:18.360Z,27.00
2023-04-16T11:11:18.342Z,29.50
2023-04-16T11:12:19.102Z,28.50
2023-04-16T11:13:19.116Z,29.70
2023-04-16T11:14:18.327Z,27.90
2023-04-16T11:15:18.263Z,26.20
2023-04-16T11:16:18.309Z,28.70
2023-04-16T11:17:18.241Z,27.20
2023-04-16T11:18:18.281Z,30.30
2023-04-16T11:19:18.247Z,27.80
2023-04-16T11:20:19.796Z,28.90
2023-04-16T11:21:18.211Z,27.80
2023-04-16T11:22:18.214Z,26.60
2023-04-16T11:23:18.393Z,24.90
2023-04-16T11:24:18.260Z,27.40
2023-04-16T11:25:18.160Z,26.20
2023-04-16T11:26:18.214Z,29.00
2023-04-16T11:27:18.132Z,26.60
2023-04-16T11:28:18.148Z,26.10
2023-04-16T11:29:18.134Z,26.90
2023-04-16T11:30:18.166Z,29.00
2023-04-16T11:31:18.109Z,26.30
2023-04-16T11:32:18.134Z,27.40
2023-04-16T11:33:18.872Z,28.00
2023-04-16T11:34:18.923Z,27.30
2023-04-16T11:35:18.081Z,26.50
2023-04-16T11:36:18.065Z,27.60
2023-04-16T11:37:18.024Z,25.50
2023-04-16T11:38:18.029Z,24.20
2023-04-16T11:39:18.017Z,25.90
2023-04-16T11:40:18.022Z,24.80
2023-04-16T11:41:17.983Z,23.30
2023-04-16T11:42:18.018Z,24.20
2023-04-16T11:43:17.953Z,26.40
2023-04-16T11:44:17.963Z,26.30
2023-04-16T11:45:17.950Z,24.10
2023-04-16T11:46:27.012Z,23.50
2023-04-16T11:47:18.998Z,24.90
2023-04-16T11:48:17.960Z,25.30
2023-04-16T11:49:17.909Z,22.50
2023-04-16T11:50:17.914Z,24.70
2023-04-16T11:51:17.858Z,23.50
2023-04-16T11:52:17.877Z,22.50
2023-04-16T11:53:17.887Z,22.30
2023-04-16T11:54:17.852Z,23.20
2023-04-16T11:55:17.872Z,22.00
2023-04-16T11:56:17.862Z,21.80
2023-04-16T11:57:17.799Z,25.10
2023-04-16T11:58:17.815Z,20.10
2023-04-16T11:59:17.764Z,20.00
2023-04-16T12:00:17.801Z,21.60
2023-04-16T12:01:17.794Z,20.90
2023-04-16T12:02:17.824Z,20.80
2023-04-16T12:03:18.195Z,19.40
2023-04-16T12:04:17.893Z,20.70
2023-04-16T12:05:17.768Z,19.80
2023-04-16T12:06:17.748Z,19.70
2023-04-16T12:07:17.686Z,19.80
2023-04-16T12:08:17.705Z,21.00
2023-04-16T12:09:17.724Z,23.60
2023-04-16T12:10:17.792Z,22.10
2023-04-16T12:11:17.690Z,22.50
2023-04-16T12:12:17.662Z,18.90
2023-04-16T12:13:17.667Z,22.80
2023-04-16T12:14:17.655Z,19.50
2023-04-16T12:15:17.609Z,21.10
2023-04-16T12:16:18.584Z,23.60
2023-04-16T12:17:17.610Z,18.80
2023-04-16T12:18:17.621Z,17.50
2023-04-16T12:19:17.660Z,18.50
2023-04-16T12:20:17.659Z,18.10
2023-04-16T12:21:17.599Z,17.70
2023-04-16T12:22:17.585Z,19.60
2023-04-16T12:23:18.301Z,19.30
2023-04-16T12:24:17.538Z,18.40
2023-04-16T12:25:17.699Z,17.20
2023-04-16T12:26:18.505Z,17.50
2023-04-16T12:27:17.577Z,18.70
2023-04-16T12:28:18.202Z,17.70
2023-04-16T12:29:17.525Z,18.30
2023-04-16T12:30:17.530Z,17.60
2023-04-16T12:31:17.606Z,16.80
2023-04-16T12:32:18.180Z,18.90
2023-04-16T12:33:17.683Z,16.70
2023-04-16T12:34:17.525Z,16.50
2023-04-16T12:35:17.607Z,16.60
2023-04-16T12:36:17.375Z,18.90
2023-04-16T12:37:17.365Z,15.80
2023-04-16T12:38:17.433Z,16.60
2023-04-16T12:39:17.364Z,15.80
2023-04-16T12:40:17.370Z,16.40
2023-04-16T12:41:17.326Z,17.60
2023-04-16T12:42:17.348Z,17.80
2023-04-16T12:43:17.285Z,16.30
2023-04-16T12:44:17.396Z,17.10
2023-04-16T12:45:17.294Z,15.80
2023-04-16T12:46:17.304Z,17.40
2023-04-16T12:47:17.230Z,16.30
2023-04-16T12:48:17.263Z,19.00
2023-04-16T12:49:17.224Z,16.70
2023-04-16T12:50:17.236Z,17.40
2023-04-16T12:51:17.199Z,17.10
2023-04-16T12:52:17.244Z,15.50
2023-04-16T12:53:17.172Z,17.40
2023-04-16T12:54:18.125Z,15.70
2023-04-16T12:55:17.916Z,15.60